Time;durP1;ratioP1;P1;durP2;ratioP2;P2;SDS_P1;SDS_P2;PMS_P1;PMS_P2;Temp;Humidity;BMP_temperature;BMP_pressure;BME280_temperature;BME280_humidity;BME280_pressure;Samples;Min_cycle;Max_cycle;Signal;HPM_P1;HPM_P2
2021/05/12 00:01:11;;;;;;;20.50;14.93;;;12.00;99.90;;;;;;5070447;28;20614;-64
2021/05/12 00:03:37;;;;;;;18.77;14.90;;;12.00;99.90;;;;;;5064922;28;20285;-64
2021/05/12 00:06:03;;;;;;;20.57;16.70;;;11.90;99.90;;;;;;5051877;28;20181;-64
2021/05/12 00:08:29;;;;;;;22.70;15.67;;;11.90;99.90;;;;;;5060780;28;20170;-64
2021/05/12 00:10:55;;;;;;;20.33;16.50;;;11.90;99.90;;;;;;5071898;28;20186;-64
2021/05/12 00:13:20;;;;;;;20.87;16.90;;;12.00;99.90;;;;;;5064198;28;20191;-64
2021/05/12 00:15:46;;;;;;;24.33;18.10;;;11.90;99.90;;;;;;5052145;28;20163;-64
2021/05/12 00:18:17;;;;;;;23.43;18.10;;;12.00;99.90;;;;;;5051863;28;20175;-64
2021/05/12 00:20:42;;;;;;;26.63;18.13;;;11.90;99.90;;;;;;5051743;28;20170;-64
2021/05/12 00:23:10;;;;;;;30.87;19.80;;;11.90;99.90;;;;;;5052200;28;20195;-64
2021/05/12 00:25:36;;;;;;;25.17;19.63;;;11.90;99.90;;;;;;5052397;28;20201;-64
2021/05/12 00:28:02;;;;;;;22.53;18.77;;;11.90;99.90;;;;;;5052937;28;20198;-64
2021/05/12 00:30:28;;;;;;;23.33;18.97;;;11.80;99.90;;;;;;5051629;28;20171;-64
2021/05/12 00:32:53;;;;;;;32.13;20.30;;;11.80;99.90;;;;;;5052802;28;20250;-64
2021/05/12 00:35:20;;;;;;;23.67;19.60;;;11.70;99.90;;;;;;5070122;28;20647;-64
2021/05/12 00:37:45;;;;;;;26.07;19.93;;;11.80;99.90;;;;;;5071979;28;20190;-64
2021/05/12 00:40:13;;;;;;;26.77;18.70;;;11.60;99.90;;;;;;5069802;28;20209;-64
2021/05/12 00:42:39;;;;;;;26.47;20.90;;;11.60;99.90;;;;;;5071804;28;20530;-64
2021/05/12 00:45:07;;;;;;;29.57;22.37;;;11.60;99.90;;;;;;5054199;28;20599;-64
2021/05/12 00:47:33;;;;;;;26.57;20.83;;;11.70;99.90;;;;;;5051691;28;20170;-64
2021/05/12 00:50:01;;;;;;;26.33;22.10;;;11.50;99.90;;;;;;5067369;28;20182;-64
2021/05/12 00:52:27;;;;;;;30.20;22.77;;;11.70;99.90;;;;;;5071331;28;20264;-64
2021/05/12 00:54:53;;;;;;;27.37;21.17;;;11.60;99.90;;;;;;5069829;28;20213;-64
2021/05/12 00:57:19;;;;;;;27.07;22.13;;;11.70;99.90;;;;;;5071639;28;20178;-64
2021/05/12 00:59:46;;;;;;;32.27;23.20;;;11.60;99.90;;;;;;5057775;28;20257;-64
2021/05/12 01:02:14;;;;;;;26.50;22.10;;;11.80;99.90;;;;;;5052666;28;20179;-64
2021/05/12 01:04:40;;;;;;;28.47;22.70;;;11.80;99.90;;;;;;5051490;28;20191;-64
2021/05/12 01:07:06;;;;;;;29.83;22.60;;;11.70;99.90;;;;;;5052501;28;20175;-64
2021/05/12 01:09:31;;;;;;;30.70;21.47;;;11.80;99.90;;;;;;5051495;28;20632;-64
2021/05/12 01:11:57;;;;;;;29.70;22.93;;;11.80;99.90;;;;;;5055524;28;20243;-64
2021/05/12 01:14:24;;;;;;;25.60;20.73;;;11.90;99.90;;;;;;5070923;28;20220;-64
2021/05/12 01:16:50;;;;;;;24.57;20.53;;;11.90;99.90;;;;;;5071282;28;20552;-64
2021/05/12 01:19:16;;;;;;;24.20;19.40;;;11.90;99.90;;;;;;5075475;28;20518;-64
2021/05/12 01:21:42;;;;;;;26.97;21.30;;;11.90;99.90;;;;;;5073855;28;20171;-64
2021/05/12 01:24:08;;;;;;;26.50;21.17;;;12.00;99.90;;;;;;5074017;28;20667;-64
2021/05/12 01:26:34;;;;;;;26.53;19.10;;;12.00;99.90;;;;;;5075294;28;20224;-64
2021/05/12 01:29:00;;;;;;;28.93;21.43;;;12.00;99.90;;;;;;5073403;28;20178;-64
2021/05/12 01:31:38;;;;;;;27.53;20.73;;;12.00;99.90;;;;;;5074928;28;20204;-64
2021/05/12 01:34:05;;;;;;;24.23;20.37;;;12.00;99.90;;;;;;5073043;28;20553;-64
2021/05/12 01:36:33;;;;;;;27.70;20.23;;;12.00;99.90;;;;;;5075211;28;20174;-64
2021/05/12 01:38:59;;;;;;;28.20;19.90;;;12.00;99.90;;;;;;5073351;28;20182;-65
2021/05/12 01:41:27;;;;;;;23.37;19.20;;;12.10;99.90;;;;;;5074809;28;20166;-65
2021/05/12 01:43:53;;;;;;;24.83;18.30;;;12.10;99.90;;;;;;5073163;28;20198;-65
2021/05/12 01:46:19;;;;;;;23.83;17.83;;;12.10;99.90;;;;;;5074457;28;20265;-64
2021/05/12 01:48:46;;;;;;;28.97;18.00;;;12.20;99.90;;;;;;5059574;28;20267;-64
2021/05/12 01:51:12;;;;;;;23.30;17.13;;;12.20;99.90;;;;;;5054477;28;20171;-65
2021/05/12 01:53:39;;;;;;;26.17;18.07;;;12.20;99.90;;;;;;5055775;28;20210;-64
2021/05/12 01:56:05;;;;;;;20.50;16.57;;;12.20;99.90;;;;;;5054576;28;20178;-64
2021/05/12 01:58:32;;;;;;;20.17;15.67;;;12.20;99.90;;;;;;5055818;28;20261;-64
2021/05/12 02:00:58;;;;;;;22.33;15.00;;;12.20;99.90;;;;;;5056000;28;20171;-68
2021/05/12 02:03:24;;;;;;;19.63;15.57;;;12.30;99.90;;;;;;5060952;28;20197;-69
2021/05/12 02:05:51;;;;;;;23.83;16.33;;;12.30;99.90;;;;;;5076450;28;20181;-67
2021/05/12 02:08:21;;;;;;;26.33;16.57;;;12.20;99.90;;;;;;5074490;28;20206;-68
2021/05/12 02:10:49;;;;;;;18.23;15.50;;;12.20;99.90;;;;;;5075838;28;20174;-71
2021/05/12 02:13:15;;;;;;;21.47;16.57;;;12.30;99.90;;;;;;5073478;28;20195;-67
2021/05/12 02:15:42;;;;;;;23.03;16.33;;;12.30;99.90;;;;;;5056495;28;20171;-68
2021/05/12 02:18:08;;;;;;;19.50;16.50;;;12.30;99.90;;;;;;5056220;28;20179;-70
2021/05/12 02:20:35;;;;;;;24.93;16.40;;;12.30;99.90;;;;;;5075771;28;20178;-69
2021/05/12 02:23:04;;;;;;;20.63;15.33;;;12.30;99.90;;;;;;5075978;28;20273;-69
2021/05/12 02:25:30;;;;;;;24.10;17.03;;;12.30;99.90;;;;;;5074463;28;20231;-70
2021/05/12 02:27:56;;;;;;;19.87;16.37;;;12.30;99.90;;;;;;5073260;28;20231;-70
2021/05/12 02:30:23;;;;;;;21.43;16.13;;;12.30;99.90;;;;;;5075233;28;20178;-70
2021/05/12 02:32:49;;;;;;;20.90;16.07;;;11.80;99.90;;;;;;5074048;28;20181;-70
2021/05/12 02:35:16;;;;;;;20.33;15.17;;;12.30;99.90;;;;;;5075410;28;20205;-67
2021/05/12 02:37:42;;;;;;;19.27;14.23;;;12.30;99.90;;;;;;5074008;28;20258;-69
2021/05/12 02:40:11;;;;;;;19.27;14.40;;;12.30;99.90;;;;;;5073728;28;20269;-71
2021/05/12 02:42:37;;;;;;;17.83;13.33;;;12.20;99.90;;;;;;5073752;28;20185;-70
2021/05/12 02:45:07;;;;;;;20.33;13.67;;;12.30;99.90;;;;;;5075397;28;20171;-70
2021/05/12 02:47:33;;;;;;;18.30;13.27;;;12.30;99.90;;;;;;5072637;28;20186;-71
2021/05/12 02:50:00;;;;;;;18.57;13.60;;;12.30;99.90;;;;;;5075053;28;20166;-67
2021/05/12 02:52:25;;;;;;;17.07;12.97;;;12.30;99.90;;;;;;5073288;28;20181;-70
2021/05/12 02:54:51;;;;;;;17.13;12.70;;;12.40;99.90;;;;;;5075145;28;20291;-67
2021/05/12 02:57:18;;;;;;;17.07;12.37;;;12.40;99.90;;;;;;5069865;28;20659;-70
2021/05/12 02:59:44;;;;;;;16.53;13.43;;;12.40;99.90;;;;;;5075417;28;20174;-71
2021/05/12 03:02:09;;;;;;;14.20;12.37;;;12.50;99.90;;;;;;5073197;28;20175;-68
2021/05/12 03:04:35;;;;;;;19.10;13.00;;;12.40;99.90;;;;;;5075152;28;20624;-67
2021/05/12 03:07:01;;;;;;;17.17;12.30;;;12.30;99.90;;;;;;5073577;28;20183;-67
2021/05/12 03:09:27;;;;;;;17.97;13.20;;;12.40;99.90;;;;;;5075189;28;20692;-70
2021/05/12 03:11:53;;;;;;;16.63;13.00;;;12.40;99.90;;;;;;5073897;28;20176;-67
2021/05/12 03:14:19;;;;;;;20.67;12.40;;;12.40;99.90;;;;;;5073779;28;20214;-65
2021/05/12 03:16:45;;;;;;;14.30;12.67;;;12.50;99.90;;;;;;5075214;28;20194;-70
2021/05/12 03:19:11;;;;;;;19.37;12.20;;;12.40;99.90;;;;;;5055828;28;20185;-68
2021/05/12 03:21:37;;;;;;;17.37;12.23;;;12.40;99.90;;;;;;5055730;28;20178;-67
2021/05/12 03:24:04;;;;;;;13.83;12.30;;;12.40;99.90;;;;;;5053783;28;20273;-68
2021/05/12 03:26:30;;;;;;;13.50;11.27;;;12.40;99.90;;;;;;5055628;28;20890;-68
2021/05/12 03:28:56;;;;;;;15.93;11.10;;;12.40;99.90;;;;;;5054730;28;20182;-70
2021/05/12 03:31:22;;;;;;;14.57;11.13;;;12.30;99.90;;;;;;5055158;28;20187;-69
2021/05/12 03:33:48;;;;;;;15.33;11.10;;;12.30;99.90;;;;;;5054343;28;20211;-67
2021/05/12 03:36:14;;;;;;;17.90;11.13;;;12.30;99.90;;;;;;5064267;28;20541;-69
2021/05/12 03:38:40;;;;;;;18.40;11.37;;;12.30;99.90;;;;;;5073884;28;20170;-70
2021/05/12 03:41:07;;;;;;;14.00;10.93;;;12.30;99.90;;;;;;5061744;28;20174;-68
2021/05/12 03:43:34;;;;;;;16.17;11.37;;;12.30;99.90;;;;;;5054081;28;20707;-71
2021/05/12 03:46:03;;;;;;;16.77;12.07;;;12.40;99.90;;;;;;5062793;28;20174;-67
2021/05/12 03:48:30;;;;;;;15.10;12.13;;;12.30;99.90;;;;;;5068390;28;20247;-69
2021/05/12 03:50:57;;;;;;;18.83;13.00;;;12.30;99.90;;;;;;5054160;28;20177;-69
2021/05/12 03:53:23;;;;;;;15.37;12.17;;;12.30;99.90;;;;;;5055454;28;20202;-69
2021/05/12 03:55:48;;;;;;;17.03;12.77;;;12.20;99.90;;;;;;5054383;28;20178;-68
2021/05/12 03:58:14;;;;;;;19.27;12.40;;;12.30;99.90;;;;;;5054130;28;20183;-65
2021/05/12 04:00:40;;;;;;;14.50;12.63;;;12.30;99.90;;;;;;5052250;28;20521;-65
2021/05/12 04:03:05;;;;;;;15.13;12.40;;;12.30;99.90;;;;;;5053350;28;20255;-65
2021/05/12 04:05:31;;;;;;;15.33;12.50;;;12.30;99.90;;;;;;5052324;28;20535;-65
2021/05/12 04:07:57;;;;;;;20.03;14.00;;;12.30;99.90;;;;;;5053316;28;20194;-65
2021/05/12 04:10:22;;;;;;;14.90;12.73;;;12.30;99.90;;;;;;5051763;28;20224;-65
2021/05/12 04:12:48;;;;;;;20.13;13.97;;;12.20;99.90;;;;;;5053287;28;20182;-65
2021/05/12 04:15:14;;;;;;;18.80;13.87;;;12.20;99.90;;;;;;5051855;28;20198;-65
2021/05/12 04:17:40;;;;;;;18.07;15.00;;;12.20;99.90;;;;;;5052524;28;20179;-65
2021/05/12 04:20:10;;;;;;;20.43;15.60;;;12.10;99.90;;;;;;5051675;28;20198;-65
2021/05/12 04:22:37;;;;;;;21.63;14.47;;;12.30;99.90;;;;;;5053207;28;20581;-65
2021/05/12 04:25:08;;;;;;;20.67;14.80;;;12.20;99.90;;;;;;5050974;28;20299;-65
2021/05/12 04:27:34;;;;;;;16.10;14.00;;;12.20;99.90;;;;;;5053182;28;20332;-65
2021/05/12 04:29:59;;;;;;;18.13;14.40;;;12.20;99.90;;;;;;5051594;28;20249;-65
2021/05/12 04:32:25;;;;;;;18.17;14.90;;;12.20;99.90;;;;;;5052709;28;20206;-65
2021/05/12 04:34:51;;;;;;;19.90;15.03;;;12.20;99.90;;;;;;5051899;28;20309;-65
2021/05/12 04:37:16;;;;;;;19.60;15.70;;;12.20;99.90;;;;;;5052879;28;20628;-65
2021/05/12 04:39:43;;;;;;;22.07;17.07;;;12.30;99.90;;;;;;5051568;28;20178;-64
2021/05/12 04:42:09;;;;;;;22.27;15.80;;;12.30;99.90;;;;;;5057266;28;20251;-65
2021/05/12 04:44:35;;;;;;;22.00;15.57;;;12.30;99.90;;;;;;5071603;28;20186;-65
2021/05/12 04:47:00;;;;;;;26.97;15.97;;;12.40;99.90;;;;;;5069994;28;20204;-64
2021/05/12 04:49:26;;;;;;;27.93;15.80;;;12.40;99.90;;;;;;5071474;28;20182;-65
2021/05/12 04:51:52;;;;;;;23.40;15.50;;;12.40;99.90;;;;;;5069591;28;20461;-65
2021/05/12 04:54:17;;;;;;;21.50;15.63;;;12.50;99.90;;;;;;5071102;28;20202;-65
2021/05/12 04:56:43;;;;;;;21.90;15.77;;;12.50;99.90;;;;;;5069915;28;20178;-65
2021/05/12 04:59:09;;;;;;;22.67;15.00;;;12.40;99.90;;;;;;5071607;28;20539;-65
2021/05/12 05:01:34;;;;;;;25.67;15.80;;;12.50;99.90;;;;;;5070314;28;20197;-64
2021/05/12 05:04:01;;;;;;;21.93;15.10;;;12.50;99.90;;;;;;5070812;28;20247;-65
2021/05/12 05:06:27;;;;;;;21.30;15.47;;;12.60;99.90;;;;;;5071566;28;20178;-65
2021/05/12 05:08:53;;;;;;;22.97;16.77;;;12.60;99.90;;;;;;5068108;28;20732;-64
2021/05/12 05:11:19;;;;;;;23.20;15.90;;;12.70;99.90;;;;;;5069217;28;20181;-65
2021/05/12 05:13:44;;;;;;;21.43;15.80;;;12.70;99.90;;;;;;5071223;28;20198;-65
2021/05/12 05:16:11;;;;;;;23.63;16.27;;;12.70;99.90;;;;;;5060310;28;20175;-65
2021/05/12 05:18:39;;;;;;;21.77;15.87;;;12.60;99.90;;;;;;5051211;28;20178;-65
2021/05/12 05:21:06;;;;;;;23.40;16.73;;;12.60;99.90;;;;;;5052069;28;20569;-64
2021/05/12 05:23:36;;;;;;;24.97;16.13;;;12.60;99.90;;;;;;5050246;28;20197;-65
2021/05/12 05:26:02;;;;;;;25.47;17.07;;;12.70;99.90;;;;;;5052287;28;20178;-64
2021/05/12 05:28:28;;;;;;;23.90;16.47;;;12.80;99.90;;;;;;5050963;28;20174;-65
2021/05/12 05:30:54;;;;;;;21.10;15.13;;;12.80;99.90;;;;;;5052111;28;20171;-65
2021/05/12 05:33:20;;;;;;;17.50;15.27;;;12.80;99.90;;;;;;5050494;28;20285;-64
2021/05/12 05:35:46;;;;;;;22.97;15.20;;;12.80;99.90;;;;;;5054171;28;20212;-65
2021/05/12 05:38:12;;;;;;;23.23;15.33;;;12.90;99.90;;;;;;5070827;28;20249;-65
2021/05/12 05:40:37;;;;;;;21.47;14.63;;;13.00;99.90;;;;;;5068942;28;20265;-64
2021/05/12 05:43:03;;;;;;;22.50;14.80;;;13.00;99.90;;;;;;5069655;28;20186;-65
2021/05/12 05:45:30;;;;;;;16.30;13.17;;;13.00;99.90;;;;;;5057844;28;20636;-65
2021/05/12 05:47:56;;;;;;;16.33;13.47;;;13.00;99.90;;;;;;5050981;28;20200;-65
2021/05/12 05:50:22;;;;;;;16.87;12.73;;;13.10;99.90;;;;;;5051434;28;20264;-65
2021/05/12 05:52:48;;;;;;;16.87;12.23;;;13.10;99.90;;;;;;5050709;28;20166;-66
2021/05/12 05:55:14;;;;;;;13.50;11.00;;;13.10;99.90;;;;;;5051714;28;20691;-64
2021/05/12 05:57:40;;;;;;;13.43;11.07;;;13.20;99.90;;;;;;5050835;28;20182;-65
2021/05/12 06:00:07;;;;;;;17.43;12.07;;;13.10;99.90;;;;;;5051505;28;20257;-65
2021/05/12 06:02:35;;;;;;;13.30;10.47;;;13.10;99.90;;;;;;5051671;28;20210;-65
2021/05/12 06:05:04;;;;;;;15.27;9.87;;;13.30;99.90;;;;;;5053933;28;20167;-65
2021/05/12 06:07:29;;;;;;;16.47;9.13;;;13.40;99.90;;;;;;5055431;28;20179;-65
2021/05/12 06:09:55;;;;;;;15.63;8.50;;;13.40;99.90;;;;;;5054068;28;20178;-64
2021/05/12 06:12:21;;;;;;;13.27;8.33;;;13.50;99.90;;;;;;5066458;28;20186;-65
2021/05/12 06:14:46;;;;;;;14.53;8.93;;;13.30;99.90;;;;;;5074048;28;20212;-65
2021/05/12 06:17:12;;;;;;;17.90;11.10;;;13.30;99.90;;;;;;5072855;28;20174;-65
2021/05/12 06:19:38;;;;;;;22.30;11.53;;;13.30;99.90;;;;;;5054438;28;20174;-65
2021/05/12 06:22:04;;;;;;;11.63;8.13;;;13.30;99.90;;;;;;5053542;28;20163;-65
2021/05/12 06:24:29;;;;;;;11.40;8.63;;;13.10;99.90;;;;;;5071716;28;20520;-65
2021/05/12 06:26:55;;;;;;;10.63;8.93;;;13.10;99.90;;;;;;5071777;28;20174;-65
2021/05/12 06:29:21;;;;;;;12.17;7.83;;;12.90;99.90;;;;;;5071179;28;20210;-64
2021/05/12 06:31:46;;;;;;;13.20;7.83;;;12.80;99.90;;;;;;5073680;28;20241;-65
2021/05/12 06:34:12;;;;;;;14.83;9.00;;;12.90;99.90;;;;;;5071671;28;20335;-65
2021/05/12 06:36:37;;;;;;;11.77;8.27;;;13.00;99.90;;;;;;5072397;28;20177;-64
2021/05/12 06:39:04;;;;;;;13.27;7.27;;;13.30;99.90;;;;;;5071790;28;20174;-64
2021/05/12 06:41:31;;;;;;;7.20;6.47;;;13.80;99.90;;;;;;5073303;28;20173;-65
2021/05/12 06:43:57;;;;;;;9.10;6.53;;;14.40;99.90;;;;;;5071972;28;20683;-65
2021/05/12 06:46:23;;;;;;;10.60;6.60;;;15.00;99.90;;;;;;5073272;28;20175;-65
2021/05/12 06:48:49;;;;;;;12.27;6.40;;;15.50;99.90;;;;;;5071604;28;20559;-65
2021/05/12 06:51:14;;;;;;;8.67;6.00;;;15.80;99.90;;;;;;5072921;28;20227;-64
2021/05/12 06:53:40;;;;;;;8.77;6.40;;;15.90;99.90;;;;;;5071454;28;20205;-65
2021/05/12 06:56:06;;;;;;;8.67;5.37;;;16.10;99.90;;;;;;5073092;28;20201;-66
2021/05/12 06:58:34;;;;;;;7.03;5.20;;;16.20;99.90;;;;;;5071192;28;20623;-65
2021/05/12 07:01:00;;;;;;;8.30;5.57;;;16.10;99.90;;;;;;5072750;28;20205;-65
2021/05/12 07:03:26;;;;;;;8.47;5.87;;;16.30;99.90;;;;;;5071394;28;20217;-65
2021/05/12 07:05:53;;;;;;;7.87;5.13;;;16.50;99.90;;;;;;5073421;28;20239;-64
2021/05/12 07:08:22;;;;;;;6.57;5.57;;;16.70;99.90;;;;;;5062448;28;20189;-65
2021/05/12 07:10:49;;;;;;;7.57;5.30;;;16.70;99.90;;;;;;5052961;28;20170;-66
2021/05/12 07:13:15;;;;;;;11.40;5.77;;;16.80;99.90;;;;;;5054234;28;20241;-65
2021/05/12 07:15:40;;;;;;;11.27;6.63;;;16.70;99.90;;;;;;5052825;28;20207;-65
2021/05/12 07:18:06;;;;;;;12.43;6.07;;;16.60;99.90;;;;;;5054009;28;20174;-65
2021/05/12 07:20:32;;;;;;;5.90;4.90;;;16.50;99.90;;;;;;5052670;28;20879;-64
2021/05/12 07:23:08;;;;;;;11.10;6.20;;;16.30;99.90;;;;;;5060536;28;20552;-65
2021/05/12 07:25:35;;;;;;;8.87;6.33;;;16.20;99.90;;;;;;5072722;28;20175;-65
2021/05/12 07:28:01;;;;;;;10.53;6.90;;;16.10;99.90;;;;;;5071313;28;20184;-65
2021/05/12 07:30:27;;;;;;;6.07;5.50;;;16.30;99.90;;;;;;5072249;28;20253;-65
2021/05/12 07:32:53;;;;;;;10.00;6.60;;;16.00;99.90;;;;;;5071205;28;20629;-65
2021/05/12 07:35:19;;;;;;;8.20;6.07;;;15.90;99.90;;;;;;5056402;28;20237;-65
2021/05/12 07:37:45;;;;;;;8.03;6.23;;;15.80;99.90;;;;;;5053855;28;20175;-65
2021/05/12 07:40:11;;;;;;;9.20;6.00;;;15.70;99.90;;;;;;5052315;28;20178;-65
2021/05/12 07:42:39;;;;;;;9.00;6.70;;;15.70;99.90;;;;;;5053349;28;20183;-65
2021/05/12 07:45:06;;;;;;;10.43;6.17;;;15.90;99.90;;;;;;5052378;28;20552;-65
2021/05/12 07:47:31;;;;;;;8.57;6.27;;;16.00;99.90;;;;;;5054016;28;20179;-65
2021/05/12 07:49:57;;;;;;;9.50;6.33;;;16.10;99.90;;;;;;5056969;28;20178;-65
2021/05/12 07:52:23;;;;;;;6.73;6.00;;;16.20;99.90;;;;;;5071728;28;20186;-65
2021/05/12 07:54:48;;;;;;;11.33;6.17;;;16.20;99.90;;;;;;5071938;28;20193;-65
2021/05/12 07:57:15;;;;;;;10.40;6.53;;;16.30;99.90;;;;;;5069939;28;20253;-65
2021/05/12 07:59:40;;;;;;;9.43;7.03;;;16.40;99.90;;;;;;5071618;28;20178;-65
2021/05/12 08:02:06;;;;;;;11.80;7.50;;;16.40;99.90;;;;;;5069135;28;20173;-65
2021/05/12 08:04:33;;;;;;;8.03;6.07;;;16.20;99.90;;;;;;5071884;28;20221;-65
2021/05/12 08:06:59;;;;;;;11.17;6.83;;;16.00;99.90;;;;;;5058110;28;20181;-65
2021/05/12 08:09:25;;;;;;;12.93;7.10;;;15.90;99.90;;;;;;5051818;28;20175;-65
2021/05/12 08:11:51;;;;;;;9.37;6.83;;;16.00;99.90;;;;;;5064155;28;20545;-65
2021/05/12 08:14:17;;;;;;;12.73;7.03;;;16.40;99.90;;;;;;5071706;28;20282;-65
2021/05/12 08:16:43;;;;;;;11.10;7.37;;;16.60;99.90;;;;;;5060799;28;20193;-65
2021/05/12 08:19:09;;;;;;;9.33;6.73;;;16.70;99.90;;;;;;5051906;28;20162;-65
2021/05/12 08:21:35;;;;;;;10.57;8.40;;;16.70;99.90;;;;;;5060215;28;20203;-65
2021/05/12 08:24:01;;;;;;;8.80;6.57;;;16.90;99.90;;;;;;5070730;28;20205;-65
2021/05/12 08:26:26;;;;;;;10.50;7.13;;;17.10;99.90;;;;;;5065048;28;20591;-66
2021/05/12 08:28:53;;;;;;;9.67;6.63;;;17.30;99.90;;;;;;5051785;28;20238;-65
2021/05/12 08:31:19;;;;;;;8.53;7.17;;;17.80;99.90;;;;;;5052298;28;20183;-65
2021/05/12 08:33:45;;;;;;;9.60;7.20;;;18.00;99.90;;;;;;5051409;28;20221;-65
2021/05/12 08:36:12;;;;;;;9.57;6.23;;;18.40;99.90;;;;;;5054130;28;20193;-65
2021/05/12 08:38:37;;;;;;;9.53;6.30;;;18.90;99.90;;;;;;5071764;28;20170;-65
2021/05/12 08:41:03;;;;;;;11.55;6.25;;;19.60;99.90;;;;;;5069618;28;20174;-65
2021/05/12 08:43:30;;;;;;;11.52;6.63;;;20.70;99.90;;;;;;5051591;28;20187;-65
2021/05/12 08:45:56;;;;;;;7.22;5.97;;;21.90;99.90;;;;;;5051437;28;20654;-66
2021/05/12 08:48:23;;;;;;;9.65;6.13;;;22.50;99.90;;;;;;5051065;28;20170;-65
2021/05/12 08:50:50;;;;;;;10.60;5.60;;;22.90;99.90;;;;;;5051196;28;20179;-65
2021/05/12 08:53:16;;;;;;;9.90;6.50;;;22.70;99.90;;;;;;5066111;28;20212;-65
2021/05/12 08:55:42;;;;;;;8.32;6.32;;;22.60;99.90;;;;;;5071665;28;20748;-65
2021/05/12 08:58:08;;;;;;;10.48;6.68;;;23.00;99.90;;;;;;5069666;28;20265;-65
2021/05/12 09:00:34;;;;;;;11.18;6.75;;;23.40;99.90;;;;;;5070757;28;20254;-65
2021/05/12 09:03:00;;;;;;;10.15;6.93;;;23.80;99.90;;;;;;5069283;28;20674;-65
2021/05/12 09:05:28;;;;;;;9.20;5.97;;;24.30;99.90;;;;;;5071423;28;20175;-66
2021/05/12 09:07:55;;;;;;;9.25;6.47;;;24.30;99.90;;;;;;5069415;28;20257;-65
2021/05/12 09:10:22;;;;;;;9.82;5.53;;;24.20;99.90;;;;;;5070339;28;20174;-65
2021/05/12 09:12:52;;;;;;;6.90;5.43;;;24.50;99.90;;;;;;5069640;28;20671;-65
2021/05/12 09:15:20;;;;;;;9.30;6.63;;;24.40;99.90;;;;;;5070788;28;20294;-65
2021/05/12 09:17:48;;;;;;;8.32;6.10;;;25.00;99.90;;;;;;5069693;28;20208;-66
2021/05/12 09:20:20;;;;;;;7.75;6.20;;;25.70;99.90;;;;;;5068529;28;20224;-65
2021/05/12 09:22:58;;;;;;;10.55;6.72;;;26.10;99.90;;;;;;5071027;28;20174;-65
2021/05/12 09:25:25;;;;;;;9.73;6.78;;;25.10;99.90;;;;;;5068459;28;20232;-65
2021/05/12 09:27:52;;;;;;;9.38;6.68;;;24.40;99.90;;;;;;5058253;28;20183;-65
2021/05/12 09:30:22;;;;;;;7.22;6.13;;;24.20;99.90;;;;;;5068029;28;20676;-65
2021/05/12 09:32:48;;;;;;;8.48;6.53;;;23.80;99.90;;;;;;5050456;28;20190;-65
2021/05/12 09:35:15;;;;;;;9.25;6.60;;;23.50;99.90;;;;;;5052032;28;20576;-65
2021/05/12 09:37:45;;;;;;;8.88;5.65;;;23.90;99.90;;;;;;5050814;28;20163;-65
2021/05/12 09:40:10;;;;;;;11.23;5.70;;;24.60;99.90;;;;;;5054441;28;20635;-65
2021/05/12 09:42:38;;;;;;;10.07;5.60;;;25.20;99.90;;;;;;5055305;28;20257;-65
2021/05/12 09:45:20;;;;;;;7.65;6.05;;;25.10;99.90;;;;;;5054973;28;20221;-65
2021/05/12 09:47:48;;;;;;;11.38;6.80;;;24.70;99.90;;;;;;5055862;28;20205;-65
2021/05/12 09:50:21;;;;;;;8.20;5.72;;;24.20;99.90;;;;;;5054225;28;20175;-65
2021/05/12 09:52:51;;;;;;;10.63;6.68;;;23.70;99.90;;;;;;5054634;28;20227;-65
2021/05/12 09:55:16;;;;;;;8.02;6.45;;;23.30;99.90;;;;;;5057110;28;20695;-65
2021/05/12 09:58:05;;;;;;;9.20;6.53;;;22.60;99.90;;;;;;5058578;28;20186;-65
2021/05/12 10:00:39;;;;;;;6.82;6.13;;;22.20;99.90;;;;;;5055447;28;20181;-65
2021/05/12 10:03:05;;;;;;;10.70;6.72;;;22.60;99.90;;;;;;5054294;28;20744;-65
2021/05/12 10:05:59;;;;;;;9.10;6.85;;;22.80;99.90;;;;;;5057607;28;20632;-65
2021/05/12 10:08:26;;;;;;;9.57;6.18;;;22.70;99.90;;;;;;5054504;28;20205;-65
2021/05/12 10:11:02;;;;;;;8.20;6.18;;;23.00;99.90;;;;;;5069013;28;20182;-65
2021/05/12 10:13:32;;;;;;;8.00;6.13;;;23.10;99.90;;;;;;5074466;28;20185;-65
2021/05/12 10:15:58;;;;;;;8.68;6.45;;;23.10;99.90;;;;;;5072708;28;20179;-66
2021/05/12 10:18:24;;;;;;;8.52;6.53;;;22.90;99.90;;;;;;5074324;28;20166;-66
2021/05/12 10:20:53;;;;;;;7.22;6.38;;;22.80;99.90;;;;;;5057629;28;20281;-65
2021/05/12 10:23:20;;;;;;;9.68;6.55;;;22.30;99.90;;;;;;5053054;28;20228;-65
2021/05/12 10:25:47;;;;;;;11.63;6.72;;;22.60;99.90;;;;;;5069353;28;20178;-65
2021/05/12 10:28:13;;;;;;;9.73;5.55;;;23.00;99.90;;;;;;5074071;28;20181;-65
2021/05/12 10:30:39;;;;;;;9.43;6.07;;;23.30;99.90;;;;;;5060164;28;20179;-65
2021/05/12 10:33:08;;;;;;;10.50;6.20;;;23.20;99.90;;;;;;5069723;22;20206;-66
2021/05/12 10:35:35;;;;;;;7.07;5.82;;;23.20;99.90;;;;;;5030798;28;20277;-65
2021/05/12 10:38:02;;;;;;;10.82;5.63;;;23.50;99.90;;;;;;5034285;28;20171;-66
2021/05/12 10:40:38;;;;;;;8.60;5.78;;;24.10;99.90;;;;;;5022822;28;20211;-66
2021/05/12 10:43:16;;;;;;;12.40;6.80;;;25.10;99.90;;;;;;5024369;28;20179;-66
2021/05/12 10:45:52;;;;;;;11.48;5.60;;;25.00;99.90;;;;;;5053753;28;20170;-66
2021/05/12 10:48:29;;;;;;;8.77;5.25;;;24.90;99.90;;;;;;5042707;28;20250;-66
2021/05/12 10:50:55;;;;;;;9.98;5.13;;;25.10;99.90;;;;;;5032983;28;20181;-66
2021/05/12 10:53:24;;;;;;;8.40;5.38;;;25.80;99.90;;;;;;5043915;28;20667;-66
2021/05/12 10:55:59;;;;;;;8.50;5.47;;;26.00;99.90;;;;;;5053809;28;20242;-66
2021/05/12 10:58:29;;;;;;;9.18;4.97;;;24.80;99.90;;;;;;5042824;28;20183;-66
2021/05/12 11:00:58;;;;;;;10.88;5.03;;;24.00;99.90;;;;;;5033612;28;20233;-66
2021/05/12 11:03:52;;;;;;;9.45;5.57;;;23.80;99.90;;;;;;5042737;28;20268;-66
2021/05/12 11:06:21;;;;;;;11.23;5.65;;;23.10;99.90;;;;;;5053739;28;20691;-66
2021/05/12 11:09:09;;;;;;;9.90;5.35;;;22.80;99.90;;;;;;5040978;28;20614;-66
2021/05/12 11:11:44;;;;;;;13.40;6.30;;;22.40;99.90;;;;;;5045815;28;20193;-66
2021/05/12 11:14:18;;;;;;;8.55;5.38;;;22.10;99.90;;;;;;5053066;28;20202;-66
2021/05/12 11:17:19;;;;;;;8.23;5.55;;;21.60;99.90;;;;;;5039427;28;20680;-66
2021/05/12 11:22:37;;;;;;;6.75;4.70;;;22.10;99.90;;;;;;5011686;28;20571;-66
2021/05/12 11:32:32;;;;;;;6.03;4.97;;;22.60;99.90;;;;;;5034256;28;20180;-66
2021/05/12 11:34:58;;;;;;;6.50;4.95;;;22.40;99.90;;;;;;5032664;28;20703;-66
2021/05/12 11:37:26;;;;;;;10.88;5.18;;;22.20;99.90;;;;;;5048575;28;20175;-65
2021/05/12 11:39:54;;;;;;;6.47;4.97;;;22.00;99.90;;;;;;5038142;28;20172;-66
2021/05/12 11:42:31;;;;;;;9.43;5.05;;;21.50;99.90;;;;;;5031217;28;20184;-66
2021/05/12 11:45:20;;;;;;;7.32;5.03;;;21.20;99.90;;;;;;5046314;28;20666;-66
2021/05/12 11:47:58;;;;;;;8.68;4.80;;;21.20;99.90;;;;;;5052587;28;20171;-66
2021/05/12 11:50:26;;;;;;;7.93;5.15;;;21.10;99.90;;;;;;5034765;28;20179;-66
2021/05/12 11:52:53;;;;;;;9.10;5.43;;;20.80;99.90;;;;;;5032268;28;20542;-67
2021/05/12 11:55:27;;;;;;;10.02;5.30;;;20.70;99.90;;;;;;5047560;28;20300;-65
2021/05/12 11:57:53;;;;;;;10.15;5.22;;;20.70;99.90;;;;;;5049701;28;20213;-66
2021/05/12 12:00:22;;;;;;;5.80;4.90;;;20.60;99.90;;;;;;5031682;28;20633;-66
2021/05/12 12:03:01;;;;;;;7.55;4.80;;;20.60;99.90;;;;;;5032387;28;20199;-66
2021/05/12 12:05:37;;;;;;;7.15;4.60;;;20.50;99.90;;;;;;5052208;28;20171;-66
2021/05/12 12:08:14;;;;;;;7.38;4.45;;;20.80;99.90;;;;;;5037134;28;20258;-65
2021/05/12 12:10:40;;;;;;;7.65;4.35;;;21.10;99.90;;;;;;5031804;28;20182;-66
2021/05/12 12:13:12;;;;;;;8.10;4.38;;;21.50;99.90;;;;;;5045831;28;20963;-66
2021/05/12 12:15:39;;;;;;;6.65;3.97;;;22.00;99.90;;;;;;5052019;28;20203;-66
2021/05/12 12:18:05;;;;;;;8.13;4.38;;;22.40;99.90;;;;;;5037969;28;20640;-66
2021/05/12 12:20:32;;;;;;;6.65;4.80;;;22.70;99.90;;;;;;5031660;28;20175;-66
2021/05/12 12:22:58;;;;;;;6.05;4.50;;;23.00;99.90;;;;;;5043368;28;20209;-66
2021/05/12 12:25:33;;;;;;;4.63;3.85;;;24.20;99.90;;;;;;5041491;28;20210;-66
2021/05/12 12:28:01;;;;;;;7.75;4.00;;;25.70;99.90;;;;;;5031968;28;20167;-66
2021/05/12 12:30:26;;;;;;;8.90;5.43;;;26.70;99.90;;;;;;5040086;28;20214;-67
2021/05/12 12:32:52;;;;;;;7.28;3.92;;;27.70;99.90;;;;;;5051700;28;20233;-64
2021/05/12 12:35:17;;;;;;;5.47;3.70;;;28.30;99.90;;;;;;5043528;28;20698;-64
2021/05/12 12:37:43;;;;;;;7.72;3.75;;;29.20;99.90;;;;;;5031970;28;20537;-66
2021/05/12 12:40:11;;;;;;;8.27;4.25;;;29.50;99.90;;;;;;5036756;28;20194;-65
2021/05/12 12:42:43;;;;;;;6.18;4.05;;;29.40;98.80;;;;;;5034597;28;20175;-65
2021/05/12 12:45:24;;;;;;;8.73;3.90;;;28.30;98.10;;;;;;5036066;28;20277;-64
2021/05/12 12:47:56;;;;;;;7.97;4.40;;;26.70;98.20;;;;;;5050303;28;20257;-65